createdAt,value
2022-09-28T00:00:11.569Z,14.74
2022-09-28T00:01:27.993Z,14.75
2022-09-28T00:02:44.430Z,14.78
2022-09-28T00:04:00.808Z,14.78
2022-09-28T00:05:17.185Z,14.78
2022-09-28T00:06:33.563Z,14.81
2022-09-28T00:07:49.953Z,14.81
2022-09-28T00:09:06.311Z,14.81
2022-09-28T00:10:22.972Z,14.82
2022-09-28T00:11:39.384Z,14.83
2022-09-28T00:12:55.742Z,14.84
2022-09-28T00:14:12.104Z,14.85
2022-09-28T00:15:28.503Z,14.85
2022-09-28T00:16:45.172Z,14.85
2022-09-28T00:18:01.540Z,14.86
2022-09-28T00:19:18.038Z,14.88
2022-09-28T00:20:34.467Z,14.87
2022-09-28T00:21:50.834Z,14.88
2022-09-28T00:23:07.478Z,14.90
2022-09-28T00:24:27.550Z,14.88
2022-09-28T00:25:44.208Z,14.90
2022-09-28T00:27:00.617Z,14.91
2022-09-28T00:28:16.950Z,14.91
2022-09-28T00:29:33.609Z,14.92
2022-09-28T00:30:49.999Z,14.92
2022-09-28T00:32:06.367Z,14.92
2022-09-28T00:33:22.717Z,14.92
2022-09-28T00:34:39.096Z,14.92
2022-09-28T00:35:55.738Z,14.92
2022-09-28T00:37:12.126Z,14.91
2022-09-28T00:38:28.499Z,14.90
2022-09-28T00:39:44.879Z,14.90
2022-09-28T00:41:01.336Z,14.89
2022-09-28T00:42:19.137Z,14.88
2022-09-28T00:43:35.488Z,14.88
2022-09-28T00:44:51.870Z,14.89
2022-09-28T00:46:08.329Z,14.88
2022-09-28T00:47:24.970Z,14.88
2022-09-28T00:48:41.319Z,14.90
2022-09-28T00:49:57.702Z,14.90
2022-09-28T00:51:14.132Z,14.91
2022-09-28T00:52:30.508Z,14.91
2022-09-28T00:53:47.146Z,14.91
2022-09-28T00:55:03.544Z,14.93
2022-09-28T00:56:19.920Z,14.93
2022-09-28T00:57:36.273Z,14.93
2022-09-28T00:58:54.091Z,14.94
2022-09-28T01:00:10.774Z,14.93
2022-09-28T01:01:27.201Z,14.94
2022-09-28T01:02:43.559Z,14.95
2022-09-28T01:03:59.923Z,14.94
2022-09-28T01:05:16.315Z,14.95
2022-09-28T01:06:32.952Z,14.93
2022-09-28T01:07:49.343Z,14.94
2022-09-28T01:09:05.683Z,14.94
2022-09-28T01:10:22.144Z,14.93
2022-09-28T01:11:38.497Z,14.93
2022-09-28T01:12:55.134Z,14.93
2022-09-28T01:14:12.447Z,14.92
2022-09-28T01:15:28.879Z,14.92
2022-09-28T01:16:45.293Z,14.91
2022-09-28T01:18:01.678Z,14.89
2022-09-28T01:19:18.416Z,14.89
2022-09-28T01:20:34.938Z,14.87
2022-09-28T01:21:51.288Z,14.87
2022-09-28T01:23:07.680Z,14.87
2022-09-28T01:24:24.040Z,14.88
2022-09-28T01:25:40.722Z,14.88
2022-09-28T01:26:57.078Z,14.87
2022-09-28T01:28:14.391Z,14.87
2022-09-28T01:29:30.760Z,14.87
2022-09-28T01:30:47.160Z,14.86
2022-09-28T01:32:03.860Z,14.86
2022-09-28T01:33:20.230Z,14.86
2022-09-28T01:34:36.591Z,14.85
2022-09-28T01:35:52.996Z,14.85
2022-09-28T01:37:09.353Z,14.84
2022-09-28T01:38:26.011Z,14.84
2022-09-28T01:39:42.376Z,14.83
2022-09-28T01:40:58.847Z,14.83
2022-09-28T01:42:15.202Z,14.83
2022-09-28T01:43:32.554Z,14.83
2022-09-28T01:44:49.192Z,14.82
2022-09-28T01:46:07.113Z,14.81
2022-09-28T01:47:23.513Z,14.81
2022-09-28T01:48:39.951Z,14.80
2022-09-28T01:49:56.328Z,14.78
2022-09-28T01:51:12.976Z,14.78
2022-09-28T01:52:29.371Z,14.76
2022-09-28T01:53:45.746Z,14.74
2022-09-28T01:55:03.565Z,14.74
2022-09-28T01:56:19.937Z,14.72
2022-09-28T01:57:36.576Z,14.73
2022-09-28T01:58:54.507Z,14.71
2022-09-28T02:00:10.894Z,14.71
2022-09-28T02:01:27.267Z,14.71
2022-09-28T02:02:45.111Z,14.69
2022-09-28T02:04:01.797Z,14.68
2022-09-28T02:05:18.160Z,14.67
2022-09-28T02:06:34.542Z,14.66
2022-09-28T02:07:50.930Z,14.65
2022-09-28T02:09:07.304Z,14.62
2022-09-28T02:10:24.910Z,14.61
2022-09-28T02:11:42.740Z,14.60
2022-09-28T02:13:00.561Z,14.59
2022-09-28T02:14:16.934Z,14.58
2022-09-28T02:15:33.312Z,14.57
2022-09-28T02:16:49.972Z,14.57
2022-09-28T02:18:07.786Z,14.56
2022-09-28T02:19:26.154Z,14.56
2022-09-28T02:20:43.963Z,14.55
2022-09-28T02:22:00.342Z,14.56
2022-09-28T02:23:16.972Z,14.56
2022-09-28T02:24:33.371Z,14.56
2022-09-28T02:25:49.740Z,14.56
2022-09-28T02:27:07.573Z,14.56
2022-09-28T02:28:23.958Z,14.56
2022-09-28T02:29:42.096Z,14.55
2022-09-28T02:30:58.456Z,14.55
2022-09-28T02:32:14.838Z,14.55
2022-09-28T02:33:31.214Z,14.54
2022-09-28T02:34:47.606Z,14.54
2022-09-28T02:36:04.235Z,14.53
2022-09-28T02:37:20.606Z,14.53
2022-09-28T02:38:36.978Z,14.53
2022-09-28T02:39:53.387Z,14.51
2022-09-28T02:41:09.735Z,14.51
2022-09-28T02:42:26.398Z,14.50
2022-09-28T02:43:42.757Z,14.49
2022-09-28T02:44:59.157Z,14.50
2022-09-28T02:46:15.605Z,14.48
2022-09-28T02:47:31.957Z,14.48
2022-09-28T02:49:00.120Z,14.47
2022-09-28T02:50:09.870Z,14.47
2022-09-28T02:51:27.688Z,14.46
2022-09-28T02:52:44.065Z,14.46
2022-09-28T02:54:00.419Z,14.46
2022-09-28T02:55:17.109Z,14.47
2022-09-28T02:56:33.471Z,14.47
2022-09-28T02:57:49.850Z,14.48
2022-09-28T02:59:07.651Z,14.46
2022-09-28T03:00:24.322Z,14.48
2022-09-28T03:01:40.981Z,14.49
2022-09-28T03:02:57.340Z,14.49
2022-09-28T03:04:13.711Z,14.50
2022-09-28T03:05:30.101Z,14.52
2022-09-28T03:06:46.461Z,14.53
2022-09-28T03:08:03.130Z,14.53
2022-09-28T03:09:19.476Z,14.53
2022-09-28T03:10:35.880Z,14.53
2022-09-28T03:11:53.683Z,14.53
2022-09-28T03:13:10.054Z,14.55
2022-09-28T03:14:26.690Z,14.55
2022-09-28T03:15:47.804Z,14.55
2022-09-28T03:17:04.314Z,14.55
2022-09-28T03:18:20.692Z,14.56
2022-09-28T03:19:37.164Z,14.55
2022-09-28T03:20:53.794Z,14.56
2022-09-28T03:22:10.158Z,14.55
2022-09-28T03:23:26.536Z,14.55
2022-09-28T03:24:44.449Z,14.55
2022-09-28T03:26:02.276Z,14.54
2022-09-28T03:27:19.789Z,14.55
2022-09-28T03:28:36.174Z,14.55
2022-09-28T03:29:54.049Z,14.54
2022-09-28T03:31:11.930Z,14.54
2022-09-28T03:32:29.760Z,14.54
2022-09-28T03:33:46.400Z,14.54
2022-09-28T03:35:02.800Z,14.53
2022-09-28T03:36:19.172Z,14.53
2022-09-28T03:37:35.570Z,14.54
2022-09-28T03:38:52.971Z,14.53
2022-09-28T03:40:09.731Z,14.53
2022-09-28T03:41:26.119Z,14.52
2022-09-28T03:42:42.481Z,14.53
2022-09-28T03:43:58.870Z,14.52
2022-09-28T03:45:15.261Z,14.51
2022-09-28T03:46:31.943Z,14.51
2022-09-28T03:47:49.722Z,14.50
2022-09-28T03:49:07.553Z,14.48
2022-09-28T03:50:23.968Z,14.48
2022-09-28T03:51:40.372Z,14.48
2022-09-28T03:52:57.002Z,14.46
2022-09-28T03:54:13.373Z,14.46
2022-09-28T03:55:29.904Z,14.46
2022-09-28T03:56:46.283Z,14.47
2022-09-28T03:58:02.652Z,14.48
2022-09-28T03:59:19.301Z,14.48
2022-09-28T04:00:35.756Z,14.48
2022-09-28T04:01:53.653Z,14.48
2022-09-28T04:03:11.426Z,14.49
2022-09-28T04:04:27.796Z,14.50
2022-09-28T04:05:46.019Z,14.50
2022-09-28T04:07:02.378Z,14.50
2022-09-28T04:08:18.724Z,14.51
2022-09-28T04:09:36.578Z,14.51
2022-09-28T04:10:54.438Z,14.52
2022-09-28T04:12:12.556Z,14.52
2022-09-28T04:13:28.908Z,14.53
2022-09-28T04:14:46.748Z,14.52
2022-09-28T04:16:04.692Z,14.52
2022-09-28T04:17:22.488Z,14.52
2022-09-28T04:18:40.579Z,14.51
2022-09-28T04:19:56.991Z,14.50
2022-09-28T04:21:14.817Z,14.49
2022-09-28T04:22:31.198Z,14.45
2022-09-28T04:23:49.009Z,14.44
2022-09-28T04:25:07.275Z,14.42
2022-09-28T04:26:25.089Z,14.40
2022-09-28T04:27:42.919Z,14.40
2022-09-28T04:29:05.517Z,14.37
2022-09-28T04:30:23.490Z,14.37
2022-09-28T04:31:41.605Z,14.36
2022-09-28T04:33:01.881Z,14.34
2022-09-28T04:34:19.982Z,14.33
2022-09-28T04:35:37.802Z,14.32
2022-09-28T04:36:55.722Z,14.33
2022-09-28T04:38:13.839Z,14.33
2022-09-28T04:39:31.652Z,14.31
2022-09-28T04:40:50.055Z,14.31
2022-09-28T04:42:07.857Z,14.29
2022-09-28T04:43:25.696Z,14.29
2022-09-28T04:44:43.543Z,14.28
2022-09-28T04:46:02.993Z,14.26
2022-09-28T04:47:22.816Z,14.26
2022-09-28T04:48:41.215Z,14.24
2022-09-28T04:49:59.594Z,14.23
2022-09-28T04:51:17.436Z,14.23
2022-09-28T04:52:35.292Z,14.22
2022-09-28T04:53:53.145Z,14.23
2022-09-28T04:55:11.005Z,14.22
2022-09-28T04:56:27.696Z,14.23
2022-09-28T04:57:46.046Z,14.24
2022-09-28T04:59:03.367Z,14.23
2022-09-28T05:00:21.226Z,14.23
2022-09-28T05:01:39.282Z,14.23
2022-09-28T05:02:57.406Z,14.23
2022-09-28T05:04:13.844Z,14.24
2022-09-28T05:05:31.795Z,14.24
2022-09-28T05:06:49.119Z,14.25
2022-09-28T05:08:09.392Z,14.26
2022-09-28T05:09:27.808Z,14.26
2022-09-28T05:10:46.199Z,14.27
2022-09-28T05:12:04.058Z,14.28
2022-09-28T05:13:21.928Z,14.29
2022-09-28T05:14:40.060Z,14.27
2022-09-28T05:16:01.744Z,14.28
2022-09-28T05:17:20.661Z,14.28
2022-09-28T05:18:37.089Z,14.28
2022-09-28T05:19:54.941Z,14.28
2022-09-28T05:21:12.576Z,14.28
2022-09-28T05:22:30.811Z,14.28
2022-09-28T05:23:48.204Z,14.28
2022-09-28T05:25:06.533Z,14.28
2022-09-28T05:26:25.394Z,14.29
2022-09-28T05:27:43.453Z,14.29
2022-09-28T05:29:00.862Z,14.29
2022-09-28T05:30:19.184Z,14.30
2022-09-28T05:31:37.687Z,14.30
2022-09-28T05:32:55.689Z,14.31
2022-09-28T05:34:14.505Z,14.32
2022-09-28T05:35:33.904Z,14.31
2022-09-28T05:36:51.785Z,14.30
2022-09-28T05:38:09.109Z,14.30
2022-09-28T05:39:28.776Z,14.31
2022-09-28T05:40:48.258Z,14.31
2022-09-28T05:42:06.556Z,14.31
2022-09-28T05:43:25.688Z,14.32
2022-09-28T05:44:43.535Z,14.32
2022-09-28T05:46:02.430Z,14.32
2022-09-28T05:47:20.267Z,14.32
2022-09-28T05:48:38.667Z,14.32
2022-09-28T05:49:57.287Z,14.32
2022-09-28T05:51:15.929Z,14.32
2022-09-28T05:52:34.288Z,14.33
2022-09-28T05:53:52.135Z,14.34
2022-09-28T05:55:09.999Z,14.38
2022-09-28T05:56:29.459Z,14.38
2022-09-28T05:57:47.350Z,14.38
2022-09-28T05:59:06.275Z,14.39
2022-09-28T06:00:25.261Z,14.41
2022-09-28T06:01:43.188Z,14.42
2022-09-28T06:03:05.386Z,14.42
2022-09-28T06:04:25.750Z,14.44
2022-09-28T06:05:43.177Z,14.45
2022-09-28T06:07:00.797Z,14.46
2022-09-28T06:08:18.653Z,14.48
2022-09-28T06:09:36.510Z,14.48
2022-09-28T06:10:54.888Z,14.49
2022-09-28T06:12:13.230Z,14.50
2022-09-28T06:13:31.584Z,14.52
2022-09-28T06:14:49.103Z,14.53
2022-09-28T06:16:06.973Z,14.53
2022-09-28T06:17:25.854Z,14.54
2022-09-28T06:18:43.204Z,14.55
2022-09-28T06:20:02.854Z,14.55
2022-09-28T06:21:21.829Z,14.56
2022-09-28T06:22:40.738Z,14.57
2022-09-28T06:23:59.407Z,14.58
2022-09-28T06:25:17.368Z,14.58
2022-09-28T06:26:35.920Z,14.59
2022-09-28T06:27:53.237Z,14.61
2022-09-28T06:29:13.721Z,14.62
2022-09-28T06:30:34.438Z,14.64
2022-09-28T06:31:51.878Z,14.64
2022-09-28T06:33:10.236Z,14.65
2022-09-28T06:34:28.588Z,14.67
2022-09-28T06:35:47.067Z,14.67
2022-09-28T06:37:05.523Z,14.68
2022-09-28T06:38:23.945Z,14.70
2022-09-28T06:39:41.732Z,14.71
2022-09-28T06:41:00.251Z,14.72
2022-09-28T06:42:17.926Z,14.74
2022-09-28T06:43:36.311Z,14.75
2022-09-28T06:44:55.201Z,14.76
2022-09-28T06:46:13.765Z,14.79
2022-09-28T06:47:31.751Z,14.78
2022-09-28T06:48:50.629Z,14.80
2022-09-28T06:51:59.040Z,14.83
2022-09-28T06:53:17.432Z,14.86
2022-09-28T06:54:33.971Z,14.90
2022-09-28T06:55:53.401Z,14.94
2022-09-28T06:57:12.044Z,14.99
2022-09-28T06:58:30.431Z,15.02
2022-09-28T06:59:49.928Z,15.07
2022-09-28T07:01:08.320Z,15.09
2022-09-28T07:02:26.760Z,15.10
2022-09-28T07:03:46.692Z,15.12
2022-09-28T07:05:05.613Z,15.14
2022-09-28T07:06:24.477Z,15.15
2022-09-28T07:07:45.282Z,15.18
2022-09-28T07:09:21.223Z,15.21
2022-09-28T07:10:27.497Z,15.22
2022-09-28T07:11:45.366Z,15.23
2022-09-28T07:13:05.194Z,15.25
2022-09-28T07:14:43.995Z,15.27
2022-09-28T07:15:51.467Z,15.27
2022-09-28T07:17:14.807Z,15.29
2022-09-28T07:18:34.028Z,15.31
2022-09-28T07:19:53.397Z,15.33
2022-09-28T07:21:24.816Z,15.35
2022-09-28T07:22:43.096Z,15.36
2022-09-28T07:23:59.366Z,15.39
2022-09-28T07:25:17.253Z,15.42
2022-09-28T07:26:36.229Z,15.45
2022-09-28T07:27:54.259Z,15.48
2022-09-28T07:29:13.496Z,15.52
2022-09-28T07:30:33.816Z,15.56
2022-09-28T07:31:52.217Z,15.62
2022-09-28T07:33:10.135Z,15.66
2022-09-28T07:34:28.487Z,15.70
2022-09-28T07:35:46.733Z,15.71
2022-09-28T07:37:05.263Z,15.73
2022-09-28T07:38:24.402Z,15.73
2022-09-28T07:41:34.376Z,15.42
2022-09-28T07:42:52.576Z,15.43
2022-09-28T07:44:11.430Z,15.49
2022-09-28T07:45:28.957Z,15.58
2022-09-28T07:46:46.970Z,15.65
2022-09-28T07:48:05.449Z,15.72
2022-09-28T07:49:23.803Z,15.78
2022-09-28T07:50:42.113Z,15.82
2022-09-28T07:52:01.112Z,15.87
2022-09-28T07:53:20.218Z,15.92
2022-09-28T07:54:38.882Z,15.96
2022-09-28T07:55:58.397Z,16.00
2022-09-28T07:57:21.768Z,16.04
2022-09-28T07:58:41.208Z,16.08
2022-09-28T07:59:59.735Z,16.13
2022-09-28T08:01:17.475Z,16.16
2022-09-28T08:02:36.037Z,16.20
2022-09-28T08:03:53.435Z,16.21
2022-09-28T08:05:10.854Z,16.23
2022-09-28T08:06:30.240Z,16.26
2022-09-28T08:07:48.146Z,16.27
2022-09-28T08:09:06.155Z,16.31
2022-09-28T08:10:25.496Z,16.33
2022-09-28T08:11:44.340Z,16.33
2022-09-28T08:16:43.522Z,16.36
2022-09-28T08:18:02.773Z,16.38
2022-09-28T08:19:21.595Z,16.40
2022-09-28T08:20:41.996Z,16.42
2022-09-28T08:21:59.916Z,16.43
2022-09-28T08:23:18.238Z,16.46
2022-09-28T08:24:37.484Z,16.49
2022-09-28T08:25:54.955Z,16.51
2022-09-28T08:27:13.241Z,16.54
2022-09-28T08:28:33.794Z,16.57
2022-09-28T08:29:56.494Z,16.59
2022-09-28T08:31:14.244Z,16.63
2022-09-28T08:32:32.546Z,16.64
2022-09-28T08:37:33.208Z,16.61
2022-09-28T08:38:50.709Z,16.62
2022-09-28T08:40:14.579Z,16.66
2022-09-28T08:43:25.503Z,16.76
2022-09-28T08:46:11.389Z,16.79
2022-09-28T08:47:28.128Z,16.79
2022-09-28T08:49:01.162Z,16.81
2022-09-28T08:50:09.991Z,16.86
2022-09-28T08:51:28.006Z,16.89
2022-09-28T08:52:48.547Z,16.91
2022-09-28T08:54:10.988Z,16.93
2022-09-28T08:55:29.931Z,16.93
2022-09-28T08:56:48.511Z,16.95
2022-09-28T08:58:07.123Z,16.96
2022-09-28T08:59:25.555Z,16.99
2022-09-28T09:00:44.934Z,17.07
2022-09-28T09:02:02.736Z,17.16
2022-09-28T09:03:22.621Z,17.23
2022-09-28T09:04:41.149Z,17.33
2022-09-28T09:06:02.369Z,17.44
2022-09-28T09:07:26.933Z,17.57
2022-09-28T09:08:45.986Z,17.68
2022-09-28T09:10:04.355Z,17.79
2022-09-28T09:11:22.550Z,17.83
2022-09-28T09:12:41.400Z,17.83
2022-09-28T09:14:02.506Z,17.80
2022-09-28T09:15:22.072Z,17.78
2022-09-28T09:16:40.242Z,17.79
2022-09-28T09:17:59.214Z,17.80
2022-09-28T09:19:21.785Z,17.84
2022-09-28T09:20:41.386Z,17.85
2022-09-28T09:22:00.125Z,17.86
2022-09-28T09:23:18.530Z,17.87
2022-09-28T09:24:37.088Z,17.87
2022-09-28T09:25:56.510Z,17.90
2022-09-28T09:27:16.888Z,17.92
2022-09-28T09:28:35.893Z,17.92
2022-09-28T09:29:55.358Z,17.93
2022-09-28T09:34:57.865Z,17.88
2022-09-28T09:36:18.317Z,17.89
2022-09-28T09:37:36.310Z,17.88
2022-09-28T09:38:55.197Z,17.88
2022-09-28T09:40:12.587Z,17.86
2022-09-28T09:41:30.516Z,17.86
2022-09-28T09:42:49.341Z,17.85
2022-09-28T09:44:07.917Z,17.82
2022-09-28T09:45:25.934Z,17.78
2022-09-28T09:46:44.319Z,17.75
2022-09-28T09:48:01.978Z,17.73
2022-09-28T09:53:12.406Z,17.60
2022-09-28T09:54:31.873Z,17.59
2022-09-28T09:55:50.085Z,17.60
2022-09-28T09:57:08.500Z,17.59
2022-09-28T10:00:17.928Z,17.54
2022-09-28T10:03:28.162Z,17.46
2022-09-28T10:04:46.794Z,17.44
2022-09-28T10:06:08.402Z,17.41
2022-09-28T10:07:27.357Z,17.37
2022-09-28T10:08:52.830Z,17.33
2022-09-28T10:10:18.798Z,17.29
2022-09-28T10:11:39.794Z,17.27
2022-09-28T10:12:58.888Z,17.24
2022-09-28T10:14:17.889Z,17.22
2022-09-28T10:15:35.758Z,17.21
2022-09-28T10:16:55.889Z,17.20
2022-09-28T10:18:15.839Z,17.20
2022-09-28T10:19:37.646Z,17.19
2022-09-28T10:21:02.857Z,17.19
2022-09-28T10:22:27.362Z,17.17
2022-09-28T10:23:45.669Z,17.15
2022-09-28T10:25:05.133Z,17.13
2022-09-28T10:28:14.695Z,17.08
2022-09-28T10:31:24.321Z,17.05
2022-09-28T10:32:43.270Z,17.04
2022-09-28T10:34:02.908Z,17.05
2022-09-28T10:35:22.462Z,17.06
2022-09-28T10:36:48.869Z,17.07
2022-09-28T10:40:01.539Z,17.12
2022-09-28T10:41:23.465Z,17.16
2022-09-28T10:42:47.653Z,17.21
2022-09-28T10:44:09.537Z,17.25
2022-09-28T10:45:30.411Z,17.30
2022-09-28T10:46:50.888Z,17.36
2022-09-28T10:48:11.288Z,17.39
2022-09-28T10:49:31.233Z,17.44
2022-09-28T10:52:41.146Z,17.47
2022-09-28T10:54:03.071Z,17.50
2022-09-28T10:55:21.591Z,17.55
2022-09-28T10:56:40.022Z,17.58
2022-09-28T10:57:57.954Z,17.60
2022-09-28T10:59:17.355Z,17.61
2022-09-28T11:00:47.966Z,17.64
2022-09-28T11:02:10.386Z,17.66
2022-09-28T11:03:31.670Z,17.69
2022-09-28T11:04:52.659Z,17.70
2022-09-28T11:06:16.542Z,17.71
2022-09-28T11:07:40.533Z,17.71
2022-09-28T11:09:03.766Z,17.69
2022-09-28T11:10:26.336Z,17.69
2022-09-28T11:11:46.226Z,17.69
2022-09-28T11:13:05.788Z,17.69
2022-09-28T11:14:32.210Z,17.72
2022-09-28T11:15:54.335Z,17.76
2022-09-28T11:17:19.979Z,17.79
2022-09-28T11:18:38.372Z,17.81
2022-09-28T11:23:38.247Z,17.81
2022-09-28T11:24:56.167Z,17.83
2022-09-28T11:26:18.316Z,17.84
2022-09-28T11:27:39.090Z,17.86
2022-09-28T11:28:58.136Z,17.88
2022-09-28T11:30:17.255Z,17.90
2022-09-28T11:31:36.268Z,17.95
2022-09-28T11:32:58.916Z,17.97
2022-09-28T11:34:16.980Z,18.01
2022-09-28T11:35:38.172Z,18.04
2022-09-28T11:37:01.527Z,18.07
2022-09-28T11:38:19.743Z,18.08
2022-09-28T11:39:40.954Z,18.08
2022-09-28T11:40:58.891Z,18.08
2022-09-28T11:42:16.855Z,18.08
2022-09-28T11:43:35.241Z,18.09
2022-09-28T11:44:54.597Z,18.09
2022-09-28T11:46:13.050Z,18.13
2022-09-28T11:47:32.467Z,18.16
2022-09-28T11:48:50.817Z,18.22
2022-09-28T11:50:10.958Z,18.31
2022-09-28T11:53:20.934Z,18.40
2022-09-28T11:54:40.344Z,18.42
2022-09-28T11:56:00.288Z,18.43
2022-09-28T11:57:19.146Z,18.45
2022-09-28T11:58:38.034Z,18.46
2022-09-28T11:59:56.363Z,18.46
2022-09-28T12:01:18.766Z,18.48
2022-09-28T12:02:36.811Z,18.51
2022-09-28T12:03:55.323Z,18.54
2022-09-28T12:05:19.870Z,18.55
2022-09-28T12:06:38.364Z,18.60
2022-09-28T12:07:55.984Z,18.64
2022-09-28T12:09:14.473Z,18.68
2022-09-28T12:10:33.376Z,18.73
2022-09-28T12:11:57.169Z,18.76
2022-09-28T12:13:14.526Z,18.82
2022-09-28T12:14:32.396Z,18.86
2022-09-28T12:17:19.243Z,18.95
2022-09-28T12:18:37.128Z,18.98
2022-09-28T12:19:54.988Z,19.02
2022-09-28T12:21:13.341Z,19.05
2022-09-28T12:22:31.687Z,19.09
2022-09-28T12:23:50.008Z,19.10
2022-09-28T12:25:07.879Z,19.14
2022-09-28T12:26:26.990Z,19.19
2022-09-28T12:27:45.821Z,19.24
2022-09-28T12:29:03.682Z,19.29
2022-09-28T12:30:22.410Z,19.36
2022-09-28T12:31:41.799Z,19.44
2022-09-28T12:33:01.172Z,19.52
2022-09-28T12:34:20.562Z,19.63
2022-09-28T12:35:39.079Z,19.74
2022-09-28T12:36:57.440Z,19.92
2022-09-28T12:38:16.908Z,20.32
2022-09-28T12:39:53.597Z,20.70
2022-09-28T12:40:57.169Z,20.88
2022-09-28T12:42:16.091Z,20.84
2022-09-28T12:43:34.675Z,20.85
2022-09-28T12:44:58.580Z,20.87
2022-09-28T12:46:17.317Z,20.91
2022-09-28T12:47:35.533Z,20.97
2022-09-28T12:49:24.128Z,21.18
2022-09-28T12:51:39.010Z,21.59
2022-09-28T12:53:00.684Z,21.59
2022-09-28T12:54:23.666Z,21.51
2022-09-28T12:55:42.213Z,21.42
2022-09-28T12:56:59.679Z,21.33
2022-09-28T12:58:18.058Z,21.23
2022-09-28T12:59:34.647Z,21.16
2022-09-28T13:00:53.166Z,21.09
2022-09-28T13:02:12.168Z,21.05
2022-09-28T13:03:30.674Z,21.01
2022-09-28T13:04:48.543Z,20.96
2022-09-28T13:06:05.987Z,20.94
2022-09-28T13:07:24.366Z,20.90
2022-09-28T13:08:41.855Z,20.89
2022-09-28T13:09:59.324Z,20.87
2022-09-28T13:11:17.212Z,20.87
2022-09-28T13:12:35.199Z,20.87
2022-09-28T13:13:53.687Z,20.87
2022-09-28T13:15:10.165Z,20.88
2022-09-28T13:16:26.690Z,20.88
2022-09-28T13:17:44.600Z,20.88
2022-09-28T13:19:01.061Z,20.88
2022-09-28T13:20:18.576Z,20.90
2022-09-28T13:21:36.119Z,20.91
2022-09-28T13:22:54.662Z,21.00
2022-09-28T13:24:31.098Z,21.04
2022-09-28T13:25:34.406Z,21.03
2022-09-28T13:26:52.812Z,21.00
2022-09-28T13:28:11.274Z,20.95
2022-09-28T13:29:30.460Z,20.89
2022-09-28T13:30:47.993Z,20.85
2022-09-28T13:32:05.653Z,20.81
2022-09-28T13:33:23.082Z,20.76
2022-09-28T13:34:41.608Z,20.74
2022-09-28T13:36:00.234Z,20.72
2022-09-28T13:37:17.607Z,20.66
2022-09-28T13:38:36.576Z,20.63
2022-09-28T13:39:56.036Z,20.61
2022-09-28T13:41:13.605Z,20.57
2022-09-28T13:42:32.120Z,20.55
2022-09-28T13:43:55.029Z,20.51
2022-09-28T13:45:16.817Z,20.47
2022-09-28T13:46:34.782Z,20.44
2022-09-28T13:49:43.893Z,20.37
2022-09-28T13:51:03.439Z,20.37
2022-09-28T13:54:11.657Z,20.32
2022-09-28T13:55:29.628Z,20.30
2022-09-28T13:56:47.418Z,20.28
2022-09-28T13:58:05.886Z,20.26
2022-09-28T13:59:22.480Z,20.21
2022-09-28T14:00:39.313Z,20.18
2022-09-28T14:01:59.119Z,20.13
2022-09-28T14:03:17.990Z,20.09
2022-09-28T14:04:36.960Z,20.04
2022-09-28T14:05:56.270Z,20.00
2022-09-28T14:07:14.489Z,19.95
2022-09-28T14:08:32.396Z,19.92
2022-09-28T14:09:50.606Z,19.90
2022-09-28T14:11:08.072Z,19.87
2022-09-28T14:12:26.873Z,19.86
2022-09-28T14:13:45.202Z,19.85
2022-09-28T14:15:04.193Z,19.85
2022-09-28T14:16:23.420Z,19.86
2022-09-28T14:17:40.027Z,19.89
2022-09-28T14:18:58.207Z,19.93
2022-09-28T14:20:19.546Z,19.98
2022-09-28T14:21:37.136Z,20.02
2022-09-28T14:22:55.099Z,20.10
2022-09-28T14:24:13.446Z,20.16
2022-09-28T14:25:31.497Z,20.23
2022-09-28T14:26:47.976Z,20.30
2022-09-28T14:28:05.836Z,20.34
2022-09-28T14:29:23.761Z,20.41
2022-09-28T14:30:42.624Z,20.42
2022-09-28T14:32:01.038Z,20.43
2022-09-28T14:33:18.995Z,20.46
2022-09-28T14:34:36.416Z,20.48
2022-09-28T14:35:53.805Z,20.51
2022-09-28T14:37:12.323Z,20.54
2022-09-28T14:38:30.269Z,20.57
2022-09-28T14:39:48.122Z,20.61
2022-09-28T14:41:06.642Z,20.63
2022-09-28T14:42:24.476Z,20.65
2022-09-28T14:43:42.505Z,20.72
2022-09-28T14:45:05.257Z,20.74
2022-09-28T14:46:23.267Z,20.81
2022-09-28T14:47:41.588Z,20.83
2022-09-28T14:48:58.329Z,20.86
2022-09-28T14:50:16.258Z,20.89
2022-09-28T14:51:34.195Z,20.93
2022-09-28T14:52:52.022Z,20.96
2022-09-28T14:54:08.571Z,20.95
2022-09-28T14:55:25.237Z,20.92
2022-09-28T14:56:43.606Z,20.91
2022-09-28T14:58:01.491Z,20.88
2022-09-28T14:59:18.086Z,20.86
2022-09-28T15:00:36.030Z,20.87
2022-09-28T15:01:53.878Z,20.88
2022-09-28T15:03:12.354Z,20.88
2022-09-28T15:04:30.994Z,20.87
2022-09-28T15:05:49.057Z,20.85
2022-09-28T15:07:07.693Z,20.88
2022-09-28T15:08:25.149Z,20.92
2022-09-28T15:09:43.011Z,20.95
2022-09-28T15:11:00.951Z,20.98
2022-09-28T15:12:18.830Z,20.97
2022-09-28T15:13:35.308Z,20.95
2022-09-28T15:14:53.284Z,20.90
2022-09-28T15:16:11.242Z,20.86
2022-09-28T15:17:28.573Z,20.87
2022-09-28T15:18:45.968Z,20.89
2022-09-28T15:20:03.344Z,20.89
2022-09-28T15:21:21.445Z,20.89
2022-09-28T15:22:37.915Z,20.90
2022-09-28T15:23:55.773Z,20.89
2022-09-28T15:25:13.654Z,20.86
2022-09-28T15:26:31.539Z,20.82
2022-09-28T15:27:49.443Z,20.77
2022-09-28T15:29:07.305Z,20.74
2022-09-28T15:30:25.154Z,20.73
2022-09-28T15:31:43.066Z,20.72
2022-09-28T15:33:01.223Z,20.70
2022-09-28T15:34:19.247Z,20.70
2022-09-28T15:35:37.168Z,20.69
2022-09-28T15:36:55.025Z,20.66
2022-09-28T15:38:12.886Z,20.66
2022-09-28T15:39:30.848Z,20.64
2022-09-28T15:40:49.224Z,20.61
2022-09-28T15:42:07.079Z,20.60
2022-09-28T15:43:25.430Z,20.56
2022-09-28T15:44:43.720Z,20.54
2022-09-28T15:46:01.657Z,20.50
2022-09-28T15:47:20.100Z,20.47
2022-09-28T15:48:37.920Z,20.47
2022-09-28T15:49:55.741Z,20.45
2022-09-28T15:51:13.855Z,20.43
2022-09-28T15:52:31.801Z,20.42
2022-09-28T15:53:49.150Z,20.41
2022-09-28T15:55:07.077Z,20.40
2022-09-28T15:56:25.004Z,20.37
2022-09-28T15:57:43.135Z,20.33
2022-09-28T15:59:00.526Z,20.29
2022-09-28T16:00:18.437Z,20.26
2022-09-28T16:01:36.670Z,20.21
2022-09-28T16:02:54.690Z,20.18
2022-09-28T16:04:12.802Z,20.12
2022-09-28T16:05:30.701Z,20.08
2022-09-28T16:06:48.546Z,20.04
2022-09-28T16:08:06.407Z,20.00
2022-09-28T16:09:24.237Z,19.95
2022-09-28T16:10:42.413Z,19.89
2022-09-28T16:12:00.291Z,19.85
2022-09-28T16:13:18.178Z,19.79
2022-09-28T16:14:36.067Z,19.76
2022-09-28T16:15:54.070Z,19.71
2022-09-28T16:17:11.810Z,19.68
2022-09-28T16:18:29.740Z,19.65
2022-09-28T16:19:47.620Z,19.61
2022-09-28T16:21:05.593Z,19.57
2022-09-28T16:22:26.726Z,19.54
2022-09-28T16:23:46.295Z,19.50
2022-09-28T16:25:04.202Z,19.46
2022-09-28T16:26:22.084Z,19.43
2022-09-28T16:27:39.933Z,19.40
2022-09-28T16:28:56.620Z,19.35
2022-09-28T16:30:14.672Z,19.31
2022-09-28T16:31:32.052Z,19.28
2022-09-28T16:32:49.446Z,19.23
2022-09-28T16:34:09.576Z,19.19
2022-09-28T16:35:27.320Z,19.15
2022-09-28T16:36:45.309Z,19.11
2022-09-28T16:38:02.635Z,19.08
2022-09-28T16:39:21.648Z,19.03
2022-09-28T16:40:39.836Z,18.99
2022-09-28T16:41:57.811Z,18.96
2022-09-28T16:43:14.321Z,18.92
2022-09-28T16:44:32.258Z,18.87
2022-09-28T16:45:50.100Z,18.83
2022-09-28T16:47:09.979Z,18.78
2022-09-28T16:48:27.831Z,18.74
2022-09-28T16:49:45.693Z,18.70
2022-09-28T16:51:02.095Z,18.66
2022-09-28T16:52:20.002Z,18.63
2022-09-28T16:53:38.133Z,18.60
2022-09-28T16:54:56.074Z,18.56
2022-09-28T16:56:13.933Z,18.53
2022-09-28T16:57:31.845Z,18.51
2022-09-28T16:58:49.685Z,18.48
2022-09-28T17:00:07.303Z,18.44
2022-09-28T17:01:23.779Z,18.42
2022-09-28T17:02:46.831Z,18.40
2022-09-28T17:04:04.337Z,18.38
2022-09-28T17:05:22.188Z,18.36
2022-09-28T17:06:40.287Z,18.34
2022-09-28T17:07:58.183Z,18.31
2022-09-28T17:09:16.037Z,18.29
2022-09-28T17:10:35.437Z,18.26
2022-09-28T17:11:55.197Z,18.24
2022-09-28T17:13:11.974Z,18.21
2022-09-28T17:14:29.804Z,18.18
2022-09-28T17:15:47.699Z,18.16
2022-09-28T17:17:09.852Z,18.13
2022-09-28T17:18:28.471Z,18.10
2022-09-28T17:19:47.219Z,18.07
2022-09-28T17:21:09.222Z,18.04
2022-09-28T17:22:25.642Z,18.01
2022-09-28T17:23:43.563Z,17.99
2022-09-28T17:25:00.199Z,17.97
2022-09-28T17:26:18.320Z,17.95
2022-09-28T17:27:36.162Z,17.93
2022-09-28T17:28:54.012Z,17.90
2022-09-28T17:30:12.382Z,17.89
2022-09-28T17:31:30.232Z,17.87
2022-09-28T17:32:48.343Z,17.86